createdAt,value
2022-11-27T00:00:19.111Z,45.52
2022-11-27T00:05:21.113Z,45.22
2022-11-27T00:10:23.061Z,45.63
2022-11-27T00:15:24.841Z,45.51
2022-11-27T00:20:29.687Z,45.26
2022-11-27T00:25:32.390Z,44.99
2022-11-27T00:30:34.229Z,45.40
2022-11-27T00:35:36.208Z,45.41
2022-11-27T00:40:37.996Z,45.18
2022-11-27T00:45:39.758Z,45.39
2022-11-27T00:50:41.913Z,45.16
2022-11-27T00:55:45.940Z,45.43
2022-11-27T01:00:54.786Z,45.08
2022-11-27T01:05:57.026Z,45.42
2022-11-27T01:10:59.427Z,47.42
2022-11-27T01:16:03.996Z,45.96
2022-11-27T01:21:06.423Z,46.12
2022-11-27T01:26:10.238Z,45.87
2022-11-27T01:31:18.310Z,46.27
2022-11-27T01:36:20.254Z,46.08
2022-11-27T01:41:31.565Z,45.69
2022-11-27T01:46:39.789Z,45.84
2022-11-27T01:51:55.948Z,45.80
2022-11-27T01:57:01.341Z,45.90
2022-11-27T02:02:03.882Z,45.36
2022-11-27T02:07:06.125Z,45.46
2022-11-27T02:12:25.529Z,45.73
2022-11-27T02:17:45.633Z,45.68
2022-11-27T02:23:13.967Z,45.63
2022-11-27T02:28:30.344Z,45.36
2022-11-27T02:33:35.928Z,45.60
2022-11-27T02:39:07.384Z,45.73
2022-11-27T02:44:10.802Z,45.45
2022-11-27T02:49:17.715Z,45.57
2022-11-27T02:54:25.914Z,45.77
2022-11-27T02:59:31.789Z,45.56
2022-11-27T03:04:43.728Z,45.69
2022-11-27T03:09:50.081Z,45.83
2022-11-27T03:14:51.995Z,45.89
2022-11-27T03:20:15.436Z,45.64
2022-11-27T03:25:17.767Z,45.77
2022-11-27T03:30:19.693Z,45.49
2022-11-27T03:35:25.687Z,45.91
2022-11-27T03:40:44.113Z,45.80
2022-11-27T03:46:17.548Z,45.57
2022-11-27T03:51:59.012Z,45.91
2022-11-27T03:57:19.480Z,45.92
2022-11-27T04:02:42.921Z,45.68
2022-11-27T04:07:44.723Z,45.52
2022-11-27T04:12:46.598Z,45.77
2022-11-27T04:17:48.348Z,45.46
2022-11-27T04:22:50.468Z,45.47
2022-11-27T04:27:52.232Z,45.39
2022-11-27T04:32:54.414Z,45.69
2022-11-27T04:37:59.125Z,45.92
2022-11-27T04:43:01.045Z,45.88
2022-11-27T04:48:03.417Z,45.55
2022-11-27T04:53:05.266Z,45.52
2022-11-27T04:58:07.182Z,45.71
2022-11-27T05:03:09.101Z,45.77
2022-11-27T05:08:11.101Z,45.68
2022-11-27T05:13:13.143Z,45.84
2022-11-27T05:18:14.792Z,45.75
2022-11-27T05:23:16.561Z,45.80
2022-11-27T05:28:22.366Z,45.79
2022-11-27T05:33:28.228Z,45.50
2022-11-27T05:38:30.274Z,45.83
2022-11-27T05:43:32.291Z,45.70
2022-11-27T05:48:37.458Z,45.84
2022-11-27T05:53:39.518Z,45.82
2022-11-27T05:58:43.242Z,45.45
2022-11-27T06:03:45.548Z,45.91
2022-11-27T06:08:48.007Z,45.51
2022-11-27T06:13:50.456Z,45.79
2022-11-27T06:18:54.331Z,45.80
2022-11-27T06:23:57.042Z,45.65
2022-11-27T06:29:01.927Z,45.87
2022-11-27T06:34:04.865Z,45.56
2022-11-27T06:39:08.595Z,45.65
2022-11-27T06:44:10.880Z,45.75
2022-11-27T06:49:12.717Z,45.60
2022-11-27T06:54:14.598Z,45.92
2022-11-27T06:59:17.077Z,45.57
2022-11-27T07:04:19.089Z,45.86
2022-11-27T07:09:21.273Z,45.71
2022-11-27T07:14:23.167Z,45.77
2022-11-27T07:19:25.067Z,45.65
2022-11-27T07:24:26.997Z,45.93
2022-11-27T07:29:28.813Z,45.67
2022-11-27T07:34:30.905Z,45.85
2022-11-27T07:40:00.338Z,45.44
2022-11-27T07:44:54.891Z,45.51
2022-11-27T07:49:58.710Z,45.98
2022-11-27T07:55:00.969Z,45.45
2022-11-27T08:00:03.507Z,45.77
2022-11-27T08:05:12.125Z,45.78
2022-11-27T08:10:14.293Z,45.77
2022-11-27T08:15:16.074Z,45.11
2022-11-27T08:20:19.973Z,44.74
2022-11-27T08:25:21.734Z,44.36
2022-11-27T08:30:24.008Z,44.21
2022-11-27T08:35:25.948Z,44.16
2022-11-27T08:40:27.984Z,44.32
2022-11-27T08:45:29.853Z,44.57
2022-11-27T08:50:31.745Z,44.25
2022-11-27T08:55:33.778Z,45.23
2022-11-27T09:00:36.335Z,46.08
2022-11-27T09:05:42.460Z,46.37
2022-11-27T09:10:44.328Z,46.90
2022-11-27T09:15:46.137Z,46.44
2022-11-27T09:21:13.547Z,46.84
2022-11-27T09:26:17.393Z,46.81
2022-11-27T09:31:20.380Z,46.51
2022-11-27T09:36:24.429Z,46.38
2022-11-27T09:41:50.491Z,46.21
2022-11-27T09:46:53.238Z,45.97
2022-11-27T09:52:13.161Z,45.33
2022-11-27T09:57:21.259Z,45.79
2022-11-27T10:02:30.851Z,45.40
2022-11-27T10:08:06.338Z,45.46
2022-11-27T10:13:08.700Z,45.21
2022-11-27T10:18:40.861Z,45.13
2022-11-27T10:24:20.125Z,45.03
2022-11-27T10:29:45.716Z,45.10
2022-11-27T10:34:56.461Z,45.08
2022-11-27T10:40:14.002Z,44.87
2022-11-27T10:45:40.392Z,45.36
2022-11-27T10:50:42.799Z,45.14
2022-11-27T10:56:12.788Z,45.28
2022-11-27T11:01:17.148Z,45.01
2022-11-27T11:06:23.645Z,44.75
2022-11-27T11:11:27.201Z,44.69
2022-11-27T11:21:44.886Z,44.48
2022-11-27T11:26:50.137Z,44.62
2022-11-27T11:31:54.931Z,44.55
2022-11-27T11:36:59.256Z,44.63
2022-11-27T11:42:01.266Z,44.34
2022-11-27T11:47:03.352Z,44.35
2022-11-27T11:52:22.324Z,44.29
2022-11-27T11:57:47.207Z,44.21
2022-11-27T12:03:27.151Z,44.89
2022-11-27T12:08:47.216Z,45.90
2022-11-27T12:14:26.056Z,45.79
2022-11-27T12:19:44.048Z,45.78
2022-11-27T12:25:37.436Z,45.83
2022-11-27T12:31:01.200Z,45.56
2022-11-27T12:36:11.495Z,45.33
2022-11-27T12:41:19.353Z,45.18
2022-11-27T12:46:55.013Z,45.37
2022-11-27T12:52:19.995Z,45.19
2022-11-27T12:57:46.419Z,44.93
2022-11-27T13:03:25.072Z,45.14
2022-11-27T13:08:54.728Z,44.84
2022-11-27T13:14:17.410Z,44.91
2022-11-27T13:19:33.547Z,44.96
2022-11-27T13:24:36.103Z,44.68
2022-11-27T13:29:57.261Z,44.91
2022-11-27T13:35:07.125Z,44.64
2022-11-27T13:40:22.968Z,44.53
2022-11-27T13:45:28.456Z,44.72
2022-11-27T13:50:32.145Z,44.54
2022-11-27T13:55:40.338Z,44.96
2022-11-27T14:00:45.403Z,44.61
2022-11-27T14:05:47.384Z,44.72
2022-11-27T14:10:53.580Z,44.58
2022-11-27T14:16:02.170Z,44.72
2022-11-27T14:21:05.120Z,44.55
2022-11-27T14:26:15.127Z,44.79
2022-11-27T14:31:33.613Z,44.75
2022-11-27T14:36:36.204Z,44.54
2022-11-27T14:41:37.991Z,44.50
2022-11-27T14:46:39.981Z,44.82
2022-11-27T14:51:43.776Z,44.62
2022-11-27T14:56:46.180Z,44.98
2022-11-27T15:02:14.127Z,44.84
2022-11-27T15:07:27.656Z,44.79
2022-11-27T15:12:45.550Z,45.04
2022-11-27T15:17:51.813Z,44.72
2022-11-27T15:22:56.544Z,45.21
2022-11-27T15:27:58.538Z,45.11
2022-11-27T15:33:01.664Z,45.48
2022-11-27T15:38:11.366Z,45.64
2022-11-27T15:43:15.329Z,45.08
2022-11-27T15:48:22.003Z,45.43
2022-11-27T15:53:23.893Z,45.44
2022-11-27T15:58:26.132Z,45.41
2022-11-27T16:03:28.817Z,45.62
2022-11-27T16:08:31.197Z,45.52
2022-11-27T16:13:33.219Z,46.00
2022-11-27T16:18:35.606Z,45.96
2022-11-27T16:23:38.844Z,45.92
2022-11-27T16:28:41.306Z,45.71
2022-11-27T16:33:43.278Z,45.67
2022-11-27T16:38:45.850Z,45.51
2022-11-27T16:43:51.647Z,45.58
2022-11-27T16:48:54.798Z,45.75
2022-11-27T16:53:57.618Z,45.72
2022-11-27T16:59:02.982Z,45.63
2022-11-27T17:04:09.104Z,45.68
2022-11-27T17:09:11.404Z,45.38
2022-11-27T17:14:13.374Z,45.32
2022-11-27T17:19:16.350Z,45.61
2022-11-27T17:24:18.410Z,45.60
2022-11-27T17:29:22.006Z,45.45
2022-11-27T17:34:23.869Z,45.40
2022-11-27T17:39:25.772Z,45.61
2022-11-27T17:44:27.577Z,45.80
2022-11-27T17:49:29.455Z,48.78
2022-11-27T17:54:31.379Z,49.17
2022-11-27T17:59:33.118Z,47.78
2022-11-27T18:04:36.481Z,46.65
2022-11-27T18:09:39.141Z,46.20
2022-11-27T18:14:41.137Z,45.46
2022-11-27T18:19:44.591Z,45.67
2022-11-27T18:24:46.434Z,45.41
2022-11-27T18:29:50.163Z,45.00
2022-11-27T18:34:56.319Z,45.04
2022-11-27T18:39:58.215Z,45.25
2022-11-27T18:44:59.915Z,44.83
2022-11-27T18:50:03.436Z,45.25
2022-11-27T18:55:06.245Z,45.29
2022-11-27T19:00:08.704Z,45.28
2022-11-27T19:05:10.596Z,44.82
2022-11-27T19:10:12.339Z,45.36
2022-11-27T19:15:14.247Z,45.01
2022-11-27T19:20:16.326Z,45.19
2022-11-27T19:25:18.187Z,44.64
2022-11-27T19:30:20.310Z,45.40
2022-11-27T19:35:25.511Z,46.23
2022-11-27T19:40:29.834Z,45.99
2022-11-27T19:45:32.902Z,45.69
2022-11-27T19:50:34.588Z,45.45
2022-11-27T19:55:36.324Z,46.02
2022-11-27T20:00:38.099Z,47.71
2022-11-27T20:05:39.869Z,47.10
2022-11-27T20:10:41.857Z,46.30
2022-11-27T20:15:43.897Z,46.44
2022-11-27T20:20:46.604Z,46.67
2022-11-27T20:25:49.695Z,46.25
2022-11-27T20:30:59.945Z,46.00
2022-11-27T20:36:03.058Z,46.21
2022-11-27T20:41:07.568Z,47.01
2022-11-27T20:46:11.649Z,46.88
2022-11-27T20:51:16.834Z,46.48
2022-11-27T20:56:20.318Z,46.47
2022-11-27T21:01:26.442Z,46.71
2022-11-27T21:06:30.860Z,46.27
2022-11-27T21:11:33.215Z,46.42
2022-11-27T21:16:37.381Z,46.44
2022-11-27T21:21:39.727Z,46.63
2022-11-27T21:26:42.008Z,46.82
2022-11-27T21:31:47.289Z,47.00
2022-11-27T21:36:49.380Z,46.41
2022-11-27T21:41:53.884Z,46.44
2022-11-27T21:46:55.743Z,46.66
2022-11-27T21:51:57.714Z,46.54
2022-11-27T21:57:00.337Z,46.42
2022-11-27T22:02:02.585Z,46.61
2022-11-27T22:07:04.532Z,49.18
2022-11-27T22:12:06.543Z,46.49
2022-11-27T22:17:08.386Z,46.12
2022-11-27T22:22:10.151Z,46.02
2022-11-27T22:27:12.078Z,49.46
2022-11-27T22:32:14.065Z,48.19
2022-11-27T22:37:15.884Z,47.17
2022-11-27T22:42:17.777Z,47.43
2022-11-27T22:47:19.527Z,46.88
2022-11-27T22:52:21.345Z,46.89
2022-11-27T22:57:23.461Z,46.88
2022-11-27T23:02:25.474Z,52.02
2022-11-27T23:07:27.363Z,52.34
2022-11-27T23:12:29.340Z,52.41
2022-11-27T23:17:31.291Z,49.33
2022-11-27T23:22:33.276Z,48.25
2022-11-27T23:27:35.115Z,47.05
2022-11-27T23:32:37.181Z,46.52
2022-11-27T23:37:39.084Z,46.30
2022-11-27T23:42:41.037Z,45.80
2022-11-27T23:47:42.880Z,45.50
2022-11-27T23:52:44.999Z,45.53
2022-11-27T23:57:46.862Z,45.47
